sensor_id;sensor_type;location;lat;lon;timestamp;P1;durP1;ratioP1;P2;durP2;ratioP2
8279;SDS011;8335;42.646;23.380;2023-02-15T00:01:23;53.30;;;27.80;;
8279;SDS011;8335;42.646;23.380;2023-02-15T00:03:51;48.47;;;25.47;;
8279;SDS011;8335;42.646;23.380;2023-02-15T00:06:18;50.73;;;25.80;;
8279;SDS011;8335;42.646;23.380;2023-02-15T00:08:44;50.37;;;26.30;;
8279;SDS011;8335;42.646;23.380;2023-02-15T00:11:12;50.27;;;27.07;;
8279;SDS011;8335;42.646;23.380;2023-02-15T00:13:41;54.43;;;27.90;;
8279;SDS011;8335;42.646;23.380;2023-02-15T00:16:08;49.13;;;25.43;;
8279;SDS011;8335;42.646;23.380;2023-02-15T00:18:37;47.63;;;25.60;;
8279;SDS011;8335;42.646;23.380;2023-02-15T00:21:07;48.23;;;26.33;;
8279;SDS011;8335;42.646;23.380;2023-02-15T00:23:34;52.37;;;26.03;;
8279;SDS011;8335;42.646;23.380;2023-02-15T00:26:05;52.10;;;27.20;;
8279;SDS011;8335;42.646;23.380;2023-02-15T00:28:32;53.20;;;27.23;;
8279;SDS011;8335;42.646;23.380;2023-02-15T00:31:03;49.57;;;26.67;;
8279;SDS011;8335;42.646;23.380;2023-02-15T00:33:31;51.23;;;26.47;;
8279;SDS011;8335;42.646;23.380;2023-02-15T00:35:58;53.60;;;27.03;;
8279;SDS011;8335;42.646;23.380;2023-02-15T00:38:27;48.70;;;27.13;;
8279;SDS011;8335;42.646;23.380;2023-02-15T00:40:55;51.93;;;25.87;;
8279;SDS011;8335;42.646;23.380;2023-02-15T00:43:23;50.60;;;27.00;;
8279;SDS011;8335;42.646;23.380;2023-02-15T00:45:50;57.73;;;28.17;;
8279;SDS011;8335;42.646;23.380;2023-02-15T00:48:17;49.07;;;24.87;;
8279;SDS011;8335;42.646;23.380;2023-02-15T00:50:45;48.50;;;25.67;;
8279;SDS011;8335;42.646;23.380;2023-02-15T00:53:12;48.13;;;25.40;;
8279;SDS011;8335;42.646;23.380;2023-02-15T00:55:40;49.77;;;26.20;;
8279;SDS011;8335;42.646;23.380;2023-02-15T00:58:07;51.10;;;26.27;;
8279;SDS011;8335;42.646;23.380;2023-02-15T01:00:34;47.53;;;25.73;;
8279;SDS011;8335;42.646;23.380;2023-02-15T01:03:02;49.13;;;26.83;;
8279;SDS011;8335;42.646;23.380;2023-02-15T01:05:29;49.00;;;26.10;;
8279;SDS011;8335;42.646;23.380;2023-02-15T01:07:57;47.53;;;25.83;;
8279;SDS011;8335;42.646;23.380;2023-02-15T01:10:24;47.67;;;25.07;;
8279;SDS011;8335;42.646;23.380;2023-02-15T01:12:53;48.40;;;26.10;;
8279;SDS011;8335;42.646;23.380;2023-02-15T01:15:21;51.83;;;26.83;;
8279;SDS011;8335;42.646;23.380;2023-02-15T01:17:48;47.43;;;25.73;;
8279;SDS011;8335;42.646;23.380;2023-02-15T01:20:18;50.70;;;27.53;;
8279;SDS011;8335;42.646;23.380;2023-02-15T01:22:45;46.17;;;25.33;;
8279;SDS011;8335;42.646;23.380;2023-02-15T01:25:14;44.23;;;23.23;;
8279;SDS011;8335;42.646;23.380;2023-02-15T01:27:41;47.73;;;25.10;;
8279;SDS011;8335;42.646;23.380;2023-02-15T01:30:10;45.13;;;23.47;;
8279;SDS011;8335;42.646;23.380;2023-02-15T01:32:38;48.97;;;25.97;;
8279;SDS011;8335;42.646;23.380;2023-02-15T01:35:06;47.93;;;26.77;;
8279;SDS011;8335;42.646;23.380;2023-02-15T01:37:33;46.17;;;24.10;;
8279;SDS011;8335;42.646;23.380;2023-02-15T01:40:00;47.17;;;25.47;;
8279;SDS011;8335;42.646;23.380;2023-02-15T01:42:28;48.50;;;24.33;;
8279;SDS011;8335;42.646;23.380;2023-02-15T01:44:56;51.20;;;25.83;;
8279;SDS011;8335;42.646;23.380;2023-02-15T01:47:26;47.10;;;24.67;;
8279;SDS011;8335;42.646;23.380;2023-02-15T01:49:59;48.33;;;24.17;;
8279;SDS011;8335;42.646;23.380;2023-02-15T01:52:30;47.37;;;25.03;;
8279;SDS011;8335;42.646;23.380;2023-02-15T01:54:58;46.00;;;24.10;;
8279;SDS011;8335;42.646;23.380;2023-02-15T01:57:25;49.40;;;25.83;;
8279;SDS011;8335;42.646;23.380;2023-02-15T01:59:54;47.37;;;23.27;;
8279;SDS011;8335;42.646;23.380;2023-02-15T02:02:27;50.60;;;24.97;;
8279;SDS011;8335;42.646;23.380;2023-02-15T02:04:56;46.13;;;24.67;;
8279;SDS011;8335;42.646;23.380;2023-02-15T02:07:29;42.93;;;24.00;;
8279;SDS011;8335;42.646;23.380;2023-02-15T02:09:58;48.53;;;25.37;;
8279;SDS011;8335;42.646;23.380;2023-02-15T02:12:26;47.43;;;24.07;;
8279;SDS011;8335;42.646;23.380;2023-02-15T02:14:53;42.87;;;23.20;;
8279;SDS011;8335;42.646;23.380;2023-02-15T02:17:22;46.50;;;24.63;;
8279;SDS011;8335;42.646;23.380;2023-02-15T02:23:08;44.80;;;23.93;;
8279;SDS011;8335;42.646;23.380;2023-02-15T02:25:55;46.73;;;24.20;;
8279;SDS011;8335;42.646;23.380;2023-02-15T02:28:55;46.33;;;25.40;;
8279;SDS011;8335;42.646;23.380;2023-02-15T02:35:09;47.80;;;24.63;;
8279;SDS011;8335;42.646;23.380;2023-02-15T02:37:43;43.87;;;24.13;;
8279;SDS011;8335;42.646;23.380;2023-02-15T02:40:18;43.03;;;23.00;;
8279;SDS011;8335;42.646;23.380;2023-02-15T02:42:50;44.37;;;24.27;;
8279;SDS011;8335;42.646;23.380;2023-02-15T02:45:26;47.20;;;25.10;;
8279;SDS011;8335;42.646;23.380;2023-02-15T02:47:59;44.60;;;22.87;;
8279;SDS011;8335;42.646;23.380;2023-02-15T02:50:32;42.83;;;23.83;;
8279;SDS011;8335;42.646;23.380;2023-02-15T02:52:59;40.57;;;22.77;;
8279;SDS011;8335;42.646;23.380;2023-02-15T02:55:27;47.63;;;23.77;;
8279;SDS011;8335;42.646;23.380;2023-02-15T02:57:57;43.83;;;24.20;;
8279;SDS011;8335;42.646;23.380;2023-02-15T03:00:27;46.53;;;23.97;;
8279;SDS011;8335;42.646;23.380;2023-02-15T03:02:59;44.10;;;23.23;;
8279;SDS011;8335;42.646;23.380;2023-02-15T03:05:30;44.87;;;23.63;;
8279;SDS011;8335;42.646;23.380;2023-02-15T03:08:01;46.03;;;24.27;;
8279;SDS011;8335;42.646;23.380;2023-02-15T03:10:31;44.07;;;23.40;;
8279;SDS011;8335;42.646;23.380;2023-02-15T03:13:00;40.77;;;23.20;;
8279;SDS011;8335;42.646;23.380;2023-02-15T03:15:28;42.87;;;22.90;;
8279;SDS011;8335;42.646;23.380;2023-02-15T03:18:13;43.83;;;23.40;;
8279;SDS011;8335;42.646;23.380;2023-02-15T03:20:43;40.20;;;22.43;;
8279;SDS011;8335;42.646;23.380;2023-02-15T03:23:11;41.77;;;23.13;;
8279;SDS011;8335;42.646;23.380;2023-02-15T03:25:41;46.67;;;23.67;;
8279;SDS011;8335;42.646;23.380;2023-02-15T03:28:11;42.20;;;23.07;;
8279;SDS011;8335;42.646;23.380;2023-02-15T03:30:42;44.27;;;22.73;;
8279;SDS011;8335;42.646;23.380;2023-02-15T03:33:12;44.37;;;23.73;;
8279;SDS011;8335;42.646;23.380;2023-02-15T03:35:43;48.83;;;23.10;;
8279;SDS011;8335;42.646;23.380;2023-02-15T03:38:17;42.73;;;22.97;;
8279;SDS011;8335;42.646;23.380;2023-02-15T03:40:47;39.90;;;22.30;;
8279;SDS011;8335;42.646;23.380;2023-02-15T03:43:32;39.27;;;22.77;;
8279;SDS011;8335;42.646;23.380;2023-02-15T03:46:07;44.73;;;23.10;;
8279;SDS011;8335;42.646;23.380;2023-02-15T03:48:39;40.63;;;21.93;;
8279;SDS011;8335;42.646;23.380;2023-02-15T03:51:12;40.13;;;22.07;;
8279;SDS011;8335;42.646;23.380;2023-02-15T03:54:01;38.47;;;21.20;;
8279;SDS011;8335;42.646;23.380;2023-02-15T03:56:30;39.10;;;20.87;;
8279;SDS011;8335;42.646;23.380;2023-02-15T03:58:59;40.27;;;22.00;;
8279;SDS011;8335;42.646;23.380;2023-02-15T04:01:45;40.57;;;20.97;;
8279;SDS011;8335;42.646;23.380;2023-02-15T04:04:34;39.40;;;20.70;;
8279;SDS011;8335;42.646;23.380;2023-02-15T04:07:04;40.33;;;21.33;;
8279;SDS011;8335;42.646;23.380;2023-02-15T04:09:32;41.20;;;22.17;;
8279;SDS011;8335;42.646;23.380;2023-02-15T04:12:15;42.30;;;22.23;;
8279;SDS011;8335;42.646;23.380;2023-02-15T04:14:42;42.37;;;22.23;;
8279;SDS011;8335;42.646;23.380;2023-02-15T04:17:26;40.83;;;21.93;;
8279;SDS011;8335;42.646;23.380;2023-02-15T04:19:53;36.97;;;20.17;;
8279;SDS011;8335;42.646;23.380;2023-02-15T04:22:39;42.97;;;21.77;;
8279;SDS011;8335;42.646;23.380;2023-02-15T04:25:23;40.00;;;22.03;;
8279;SDS011;8335;42.646;23.380;2023-02-15T04:27:51;38.77;;;21.20;;
8279;SDS011;8335;42.646;23.380;2023-02-15T04:30:19;37.93;;;20.57;;
8279;SDS011;8335;42.646;23.380;2023-02-15T04:32:47;40.13;;;20.93;;
8279;SDS011;8335;42.646;23.380;2023-02-15T04:35:14;35.00;;;20.63;;
8279;SDS011;8335;42.646;23.380;2023-02-15T04:37:43;43.10;;;22.53;;
8279;SDS011;8335;42.646;23.380;2023-02-15T04:40:10;41.47;;;22.23;;
8279;SDS011;8335;42.646;23.380;2023-02-15T04:42:39;40.93;;;21.60;;
8279;SDS011;8335;42.646;23.380;2023-02-15T04:45:06;42.87;;;22.63;;
8279;SDS011;8335;42.646;23.380;2023-02-15T04:47:33;42.47;;;22.80;;
8279;SDS011;8335;42.646;23.380;2023-02-15T04:50:00;39.10;;;22.17;;
8279;SDS011;8335;42.646;23.380;2023-02-15T04:52:27;38.00;;;22.07;;
8279;SDS011;8335;42.646;23.380;2023-02-15T04:54:55;41.50;;;21.47;;
8279;SDS011;8335;42.646;23.380;2023-02-15T04:57:22;39.60;;;22.93;;
8279;SDS011;8335;42.646;23.380;2023-02-15T04:59:49;36.00;;;20.73;;
8279;SDS011;8335;42.646;23.380;2023-02-15T05:02:15;40.53;;;21.83;;
8279;SDS011;8335;42.646;23.380;2023-02-15T05:04:42;42.20;;;22.20;;
8279;SDS011;8335;42.646;23.380;2023-02-15T05:07:09;41.37;;;22.03;;
8279;SDS011;8335;42.646;23.380;2023-02-15T05:09:35;37.63;;;21.43;;
8279;SDS011;8335;42.646;23.380;2023-02-15T05:12:04;41.97;;;21.87;;
8279;SDS011;8335;42.646;23.380;2023-02-15T05:14:31;39.70;;;21.87;;
8279;SDS011;8335;42.646;23.380;2023-02-15T05:16:57;40.70;;;21.67;;
8279;SDS011;8335;42.646;23.380;2023-02-15T05:19:26;39.23;;;22.23;;
8279;SDS011;8335;42.646;23.380;2023-02-15T05:21:53;44.13;;;22.17;;
8279;SDS011;8335;42.646;23.380;2023-02-15T05:24:20;39.40;;;21.97;;
8279;SDS011;8335;42.646;23.380;2023-02-15T05:27:05;44.67;;;23.83;;
8279;SDS011;8335;42.646;23.380;2023-02-15T05:29:50;41.80;;;22.37;;
8279;SDS011;8335;42.646;23.380;2023-02-15T05:32:16;40.37;;;22.43;;
8279;SDS011;8335;42.646;23.380;2023-02-15T05:34:43;40.53;;;21.00;;
8279;SDS011;8335;42.646;23.380;2023-02-15T05:37:10;41.07;;;23.00;;
8279;SDS011;8335;42.646;23.380;2023-02-15T05:39:36;38.40;;;21.73;;
8279;SDS011;8335;42.646;23.380;2023-02-15T05:42:04;39.10;;;21.17;;
8279;SDS011;8335;42.646;23.380;2023-02-15T05:44:32;41.57;;;22.90;;
8279;SDS011;8335;42.646;23.380;2023-02-15T05:46:58;40.60;;;22.87;;
8279;SDS011;8335;42.646;23.380;2023-02-15T05:49:27;39.10;;;21.57;;
8279;SDS011;8335;42.646;23.380;2023-02-15T05:51:55;39.63;;;22.00;;
8279;SDS011;8335;42.646;23.380;2023-02-15T05:54:22;38.63;;;21.40;;
8279;SDS011;8335;42.646;23.380;2023-02-15T05:56:48;39.90;;;21.70;;
8279;SDS011;8335;42.646;23.380;2023-02-15T05:59:16;43.00;;;23.17;;
8279;SDS011;8335;42.646;23.380;2023-02-15T06:01:43;39.13;;;21.27;;
8279;SDS011;8335;42.646;23.380;2023-02-15T06:04:10;39.47;;;22.23;;
8279;SDS011;8335;42.646;23.380;2023-02-15T06:06:37;40.63;;;21.93;;
8279;SDS011;8335;42.646;23.380;2023-02-15T06:09:03;38.77;;;21.47;;
8279;SDS011;8335;42.646;23.380;2023-02-15T06:11:30;35.03;;;20.90;;
8279;SDS011;8335;42.646;23.380;2023-02-15T06:13:57;35.60;;;20.77;;
8279;SDS011;8335;42.646;23.380;2023-02-15T06:16:25;41.03;;;20.73;;
8279;SDS011;8335;42.646;23.380;2023-02-15T06:18:51;39.77;;;21.20;;
8279;SDS011;8335;42.646;23.380;2023-02-15T06:21:18;37.50;;;20.57;;
8279;SDS011;8335;42.646;23.380;2023-02-15T06:23:45;37.17;;;19.97;;
8279;SDS011;8335;42.646;23.380;2023-02-15T06:26:12;38.97;;;20.23;;
8279;SDS011;8335;42.646;23.380;2023-02-15T06:28:38;37.47;;;21.27;;
8279;SDS011;8335;42.646;23.380;2023-02-15T06:31:06;37.83;;;20.97;;
8279;SDS011;8335;42.646;23.380;2023-02-15T06:33:34;36.33;;;19.80;;
8279;SDS011;8335;42.646;23.380;2023-02-15T06:36:01;34.57;;;19.80;;
8279;SDS011;8335;42.646;23.380;2023-02-15T06:38:28;33.90;;;19.73;;
8279;SDS011;8335;42.646;23.380;2023-02-15T06:40:55;34.87;;;19.50;;
8279;SDS011;8335;42.646;23.380;2023-02-15T06:43:22;35.67;;;19.67;;
8279;SDS011;8335;42.646;23.380;2023-02-15T06:45:49;34.20;;;19.53;;
8279;SDS011;8335;42.646;23.380;2023-02-15T06:48:15;32.10;;;18.63;;
8279;SDS011;8335;42.646;23.380;2023-02-15T06:50:43;31.80;;;19.00;;
8279;SDS011;8335;42.646;23.380;2023-02-15T06:53:10;28.80;;;18.50;;
8279;SDS011;8335;42.646;23.380;2023-02-15T06:55:37;38.20;;;21.13;;
8279;SDS011;8335;42.646;23.380;2023-02-15T06:58:04;31.30;;;18.53;;
8279;SDS011;8335;42.646;23.380;2023-02-15T07:00:30;30.93;;;18.37;;
8279;SDS011;8335;42.646;23.380;2023-02-15T07:02:57;31.27;;;18.60;;
8279;SDS011;8335;42.646;23.380;2023-02-15T07:05:24;30.87;;;19.10;;
8279;SDS011;8335;42.646;23.380;2023-02-15T07:07:57;28.30;;;17.53;;
8279;SDS011;8335;42.646;23.380;2023-02-15T07:10:23;28.23;;;17.33;;
8279;SDS011;8335;42.646;23.380;2023-02-15T07:12:50;23.13;;;16.23;;
8279;SDS011;8335;42.646;23.380;2023-02-15T07:15:16;23.33;;;15.53;;
8279;SDS011;8335;42.646;23.380;2023-02-15T07:17:45;23.80;;;15.17;;
8279;SDS011;8335;42.646;23.380;2023-02-15T07:20:13;24.13;;;15.80;;
8279;SDS011;8335;42.646;23.380;2023-02-15T07:22:42;23.17;;;15.30;;
8279;SDS011;8335;42.646;23.380;2023-02-15T07:25:10;21.90;;;15.00;;
8279;SDS011;8335;42.646;23.380;2023-02-15T07:27:38;22.30;;;15.23;;
8279;SDS011;8335;42.646;23.380;2023-02-15T07:30:06;21.70;;;15.93;;
8279;SDS011;8335;42.646;23.380;2023-02-15T07:32:34;22.00;;;16.37;;
8279;SDS011;8335;42.646;23.380;2023-02-15T07:35:01;21.37;;;15.53;;
8279;SDS011;8335;42.646;23.380;2023-02-15T07:37:28;23.50;;;16.10;;
8279;SDS011;8335;42.646;23.380;2023-02-15T07:39:55;20.53;;;15.13;;
8279;SDS011;8335;42.646;23.380;2023-02-15T07:42:23;21.37;;;14.77;;
8279;SDS011;8335;42.646;23.380;2023-02-15T07:44:49;21.43;;;14.73;;
8279;SDS011;8335;42.646;23.380;2023-02-15T07:47:17;23.30;;;15.93;;
8279;SDS011;8335;42.646;23.380;2023-02-15T07:49:44;20.10;;;13.93;;
8279;SDS011;8335;42.646;23.380;2023-02-15T07:52:11;24.90;;;14.03;;
8279;SDS011;8335;42.646;23.380;2023-02-15T07:54:38;21.60;;;14.43;;
8279;SDS011;8335;42.646;23.380;2023-02-15T07:57:05;21.50;;;14.80;;
8279;SDS011;8335;42.646;23.380;2023-02-15T07:59:33;21.83;;;14.70;;
8279;SDS011;8335;42.646;23.380;2023-02-15T08:01:59;24.20;;;14.93;;
8279;SDS011;8335;42.646;23.380;2023-02-15T08:04:26;20.47;;;14.17;;
8279;SDS011;8335;42.646;23.380;2023-02-15T08:06:53;22.77;;;14.17;;
8279;SDS011;8335;42.646;23.380;2023-02-15T08:09:20;21.63;;;14.60;;
8279;SDS011;8335;42.646;23.380;2023-02-15T08:11:47;22.17;;;14.60;;
8279;SDS011;8335;42.646;23.380;2023-02-15T08:14:15;21.60;;;14.23;;
8279;SDS011;8335;42.646;23.380;2023-02-15T08:16:44;23.00;;;15.80;;
8279;SDS011;8335;42.646;23.380;2023-02-15T08:19:13;24.33;;;16.43;;
8279;SDS011;8335;42.646;23.380;2023-02-15T08:21:41;22.60;;;14.20;;
8279;SDS011;8335;42.646;23.380;2023-02-15T08:24:09;24.63;;;15.20;;
8279;SDS011;8335;42.646;23.380;2023-02-15T08:26:37;23.77;;;15.80;;
8279;SDS011;8335;42.646;23.380;2023-02-15T08:29:05;20.83;;;15.10;;
8279;SDS011;8335;42.646;23.380;2023-02-15T08:31:33;25.90;;;15.50;;
8279;SDS011;8335;42.646;23.380;2023-02-15T08:34:01;26.17;;;15.57;;
8279;SDS011;8335;42.646;23.380;2023-02-15T08:36:28;24.77;;;15.60;;
8279;SDS011;8335;42.646;23.380;2023-02-15T08:38:57;31.23;;;16.50;;
8279;SDS011;8335;42.646;23.380;2023-02-15T08:41:25;23.80;;;15.00;;
8279;SDS011;8335;42.646;23.380;2023-02-15T08:43:54;23.27;;;15.03;;
8279;SDS011;8335;42.646;23.380;2023-02-15T08:46:23;23.17;;;14.20;;
8279;SDS011;8335;42.646;23.380;2023-02-15T08:48:51;24.43;;;14.10;;
8279;SDS011;8335;42.646;23.380;2023-02-15T08:51:20;21.20;;;13.57;;
8279;SDS011;8335;42.646;23.380;2023-02-15T08:53:48;24.37;;;14.63;;
8279;SDS011;8335;42.646;23.380;2023-02-15T08:56:16;22.07;;;14.57;;
8279;SDS011;8335;42.646;23.380;2023-02-15T08:58:44;21.70;;;13.93;;
8279;SDS011;8335;42.646;23.380;2023-02-15T09:01:11;21.23;;;14.00;;
8279;SDS011;8335;42.646;23.380;2023-02-15T09:03:43;25.07;;;14.03;;
8279;SDS011;8335;42.646;23.380;2023-02-15T09:06:11;24.43;;;15.17;;
8279;SDS011;8335;42.646;23.380;2023-02-15T09:08:40;22.50;;;13.93;;
8279;SDS011;8335;42.646;23.380;2023-02-15T09:11:07;22.30;;;13.67;;
8279;SDS011;8335;42.646;23.380;2023-02-15T09:13:36;21.37;;;13.47;;
8279;SDS011;8335;42.646;23.380;2023-02-15T09:16:04;20.43;;;14.33;;
8279;SDS011;8335;42.646;23.380;2023-02-15T09:18:33;22.03;;;13.63;;
8279;SDS011;8335;42.646;23.380;2023-02-15T09:21:05;17.70;;;13.20;;
8279;SDS011;8335;42.646;23.380;2023-02-15T09:23:34;25.17;;;14.20;;
8279;SDS011;8335;42.646;23.380;2023-02-15T09:26:03;26.97;;;14.57;;
8279;SDS011;8335;42.646;23.380;2023-02-15T09:28:31;21.77;;;13.30;;
8279;SDS011;8335;42.646;23.380;2023-02-15T09:31:04;24.63;;;14.50;;
8279;SDS011;8335;42.646;23.380;2023-02-15T09:33:32;24.73;;;14.23;;
8279;SDS011;8335;42.646;23.380;2023-02-15T09:35:59;23.03;;;14.93;;
8279;SDS011;8335;42.646;23.380;2023-02-15T09:38:26;22.67;;;15.20;;
8279;SDS011;8335;42.646;23.380;2023-02-15T09:40:55;22.00;;;14.40;;
8279;SDS011;8335;42.646;23.380;2023-02-15T09:43:36;21.57;;;14.10;;
8279;SDS011;8335;42.646;23.380;2023-02-15T09:46:12;25.13;;;14.90;;
8279;SDS011;8335;42.646;23.380;2023-02-15T09:48:48;22.50;;;14.23;;
8279;SDS011;8335;42.646;23.380;2023-02-15T09:54:28;25.50;;;14.67;;
8279;SDS011;8335;42.646;23.380;2023-02-15T09:57:08;20.67;;;13.57;;
8279;SDS011;8335;42.646;23.380;2023-02-15T09:59:41;19.03;;;12.93;;
8279;SDS011;8335;42.646;23.380;2023-02-15T10:02:20;18.57;;;13.50;;
8279;SDS011;8335;42.646;23.380;2023-02-15T10:05:05;20.10;;;14.00;;
8279;SDS011;8335;42.646;23.380;2023-02-15T10:07:46;20.10;;;14.47;;
8279;SDS011;8335;42.646;23.380;2023-02-15T10:10:39;22.23;;;14.33;;
8279;SDS011;8335;42.646;23.380;2023-02-15T10:13:15;20.03;;;14.83;;
8279;SDS011;8335;42.646;23.380;2023-02-15T10:15:57;18.47;;;14.03;;
8279;SDS011;8335;42.646;23.380;2023-02-15T10:18:48;21.20;;;14.17;;
8279;SDS011;8335;42.646;23.380;2023-02-15T10:21:24;22.43;;;15.43;;
8279;SDS011;8335;42.646;23.380;2023-02-15T10:26:58;21.07;;;15.17;;
8279;SDS011;8335;42.646;23.380;2023-02-15T10:29:35;21.17;;;15.00;;
8279;SDS011;8335;42.646;23.380;2023-02-15T10:32:05;22.00;;;15.40;;
8279;SDS011;8335;42.646;23.380;2023-02-15T10:34:46;20.27;;;14.53;;
8279;SDS011;8335;42.646;23.380;2023-02-15T10:40:12;22.67;;;15.73;;
8279;SDS011;8335;42.646;23.380;2023-02-15T10:42:51;22.53;;;16.43;;
8279;SDS011;8335;42.646;23.380;2023-02-15T10:45:34;22.70;;;16.50;;
8279;SDS011;8335;42.646;23.380;2023-02-15T10:48:15;21.10;;;14.83;;
8279;SDS011;8335;42.646;23.380;2023-02-15T10:50:49;21.13;;;15.27;;
8279;SDS011;8335;42.646;23.380;2023-02-15T10:53:23;23.50;;;15.97;;
8279;SDS011;8335;42.646;23.380;2023-02-15T10:56:03;24.00;;;15.50;;
8279;SDS011;8335;42.646;23.380;2023-02-15T10:58:42;24.03;;;15.77;;
8279;SDS011;8335;42.646;23.380;2023-02-15T11:01:24;20.90;;;15.10;;
8279;SDS011;8335;42.646;23.380;2023-02-15T11:04:05;25.07;;;15.67;;
8279;SDS011;8335;42.646;23.380;2023-02-15T11:06:50;22.00;;;14.90;;
8279;SDS011;8335;42.646;23.380;2023-02-15T11:09:20;20.87;;;15.30;;
8279;SDS011;8335;42.646;23.380;2023-02-15T11:11:51;22.57;;;15.40;;
8279;SDS011;8335;42.646;23.380;2023-02-15T11:14:21;24.07;;;15.03;;
8279;SDS011;8335;42.646;23.380;2023-02-15T11:17:01;25.23;;;16.07;;
8279;SDS011;8335;42.646;23.380;2023-02-15T11:19:35;25.17;;;15.70;;
8279;SDS011;8335;42.646;23.380;2023-02-15T11:22:09;25.50;;;16.33;;
8279;SDS011;8335;42.646;23.380;2023-02-15T11:24:39;23.77;;;16.90;;
8279;SDS011;8335;42.646;23.380;2023-02-15T11:27:15;23.07;;;16.63;;
8279;SDS011;8335;42.646;23.380;2023-02-15T11:29:48;27.23;;;17.10;;
8279;SDS011;8335;42.646;23.380;2023-02-15T11:32:23;28.30;;;16.07;;
8279;SDS011;8335;42.646;23.380;2023-02-15T11:34:53;26.77;;;17.00;;
8279;SDS011;8335;42.646;23.380;2023-02-15T11:37:24;24.63;;;17.20;;
8279;SDS011;8335;42.646;23.380;2023-02-15T11:39:58;24.83;;;16.40;;
8279;SDS011;8335;42.646;23.380;2023-02-15T11:42:28;26.90;;;17.53;;
8279;SDS011;8335;42.646;23.380;2023-02-15T11:44:59;27.77;;;18.70;;
8279;SDS011;8335;42.646;23.380;2023-02-15T11:47:33;28.33;;;16.80;;
8279;SDS011;8335;42.646;23.380;2023-02-15T11:50:00;28.57;;;17.10;;
8279;SDS011;8335;42.646;23.380;2023-02-15T11:52:26;25.73;;;16.53;;
8279;SDS011;8335;42.646;23.380;2023-02-15T11:54:53;26.10;;;18.10;;
8279;SDS011;8335;42.646;23.380;2023-02-15T11:57:22;23.50;;;16.20;;
8279;SDS011;8335;42.646;23.380;2023-02-15T11:59:53;26.40;;;16.90;;
8279;SDS011;8335;42.646;23.380;2023-02-15T12:02:24;27.67;;;18.57;;
8279;SDS011;8335;42.646;23.380;2023-02-15T12:04:57;34.77;;;18.40;;
8279;SDS011;8335;42.646;23.380;2023-02-15T12:07:27;27.20;;;16.77;;
8279;SDS011;8335;42.646;23.380;2023-02-15T12:10:00;26.30;;;17.47;;
8279;SDS011;8335;42.646;23.380;2023-02-15T12:12:33;25.00;;;17.10;;
8279;SDS011;8335;42.646;23.380;2023-02-15T12:15:02;28.23;;;17.83;;
8279;SDS011;8335;42.646;23.380;2023-02-15T12:17:31;29.47;;;19.50;;
8279;SDS011;8335;42.646;23.380;2023-02-15T12:20:02;27.60;;;17.43;;
8279;SDS011;8335;42.646;23.380;2023-02-15T12:22:33;30.37;;;18.37;;
8279;SDS011;8335;42.646;23.380;2023-02-15T12:25:03;29.27;;;18.73;;
8279;SDS011;8335;42.646;23.380;2023-02-15T12:27:46;26.87;;;18.63;;
8279;SDS011;8335;42.646;23.380;2023-02-15T12:30:16;28.93;;;18.07;;
8279;SDS011;8335;42.646;23.380;2023-02-15T12:32:48;29.40;;;18.03;;
8279;SDS011;8335;42.646;23.380;2023-02-15T12:35:21;29.23;;;17.87;;
8279;SDS011;8335;42.646;23.380;2023-02-15T12:37:55;30.00;;;18.63;;
8279;SDS011;8335;42.646;23.380;2023-02-15T12:40:26;30.47;;;18.90;;
8279;SDS011;8335;42.646;23.380;2023-02-15T12:42:54;29.70;;;18.10;;
8279;SDS011;8335;42.646;23.380;2023-02-15T12:45:23;29.13;;;18.23;;
8279;SDS011;8335;42.646;23.380;2023-02-15T12:48:13;29.83;;;18.63;;
8279;SDS011;8335;42.646;23.380;2023-02-15T12:50:43;30.10;;;18.80;;
8279;SDS011;8335;42.646;23.380;2023-02-15T12:53:15;28.73;;;18.20;;
8279;SDS011;8335;42.646;23.380;2023-02-15T12:55:54;30.03;;;18.30;;
8279;SDS011;8335;42.646;23.380;2023-02-15T12:58:23;28.80;;;18.27;;
8279;SDS011;8335;42.646;23.380;2023-02-15T13:01:01;30.37;;;18.77;;
8279;SDS011;8335;42.646;23.380;2023-02-15T13:03:31;28.60;;;18.50;;
8279;SDS011;8335;42.646;23.380;2023-02-15T13:05:59;35.23;;;17.97;;
8279;SDS011;8335;42.646;23.380;2023-02-15T13:08:33;28.87;;;18.90;;
8279;SDS011;8335;42.646;23.380;2023-02-15T13:11:02;31.87;;;19.20;;
8279;SDS011;8335;42.646;23.380;2023-02-15T13:13:31;29.87;;;18.60;;
8279;SDS011;8335;42.646;23.380;2023-02-15T13:16:01;32.43;;;18.87;;
8279;SDS011;8335;42.646;23.380;2023-02-15T13:18:33;32.90;;;18.83;;
8279;SDS011;8335;42.646;23.380;2023-02-15T13:21:06;29.80;;;18.07;;
8279;SDS011;8335;42.646;23.380;2023-02-15T13:23:37;32.30;;;19.10;;
8279;SDS011;8335;42.646;23.380;2023-02-15T13:26:08;31.47;;;18.70;;
8279;SDS011;8335;42.646;23.380;2023-02-15T13:28:41;28.70;;;18.83;;
8279;SDS011;8335;42.646;23.380;2023-02-15T13:31:13;33.00;;;18.40;;
8279;SDS011;8335;42.646;23.380;2023-02-15T13:33:42;29.53;;;18.50;;
8279;SDS011;8335;42.646;23.380;2023-02-15T13:36:14;28.03;;;17.73;;
8279;SDS011;8335;42.646;23.380;2023-02-15T13:38:59;28.80;;;16.77;;
8279;SDS011;8335;42.646;23.380;2023-02-15T13:41:39;33.43;;;18.43;;
8279;SDS011;8335;42.646;23.380;2023-02-15T13:44:19;29.73;;;18.80;;
8279;SDS011;8335;42.646;23.380;2023-02-15T13:46:58;32.40;;;19.23;;
8279;SDS011;8335;42.646;23.380;2023-02-15T13:49:39;30.03;;;18.13;;
8279;SDS011;8335;42.646;23.380;2023-02-15T13:52:20;29.73;;;18.27;;
8279;SDS011;8335;42.646;23.380;2023-02-15T13:54:59;32.23;;;18.33;;
8279;SDS011;8335;42.646;23.380;2023-02-15T13:57:58;27.63;;;17.60;;
8279;SDS011;8335;42.646;23.380;2023-02-15T14:00:44;31.33;;;18.90;;
8279;SDS011;8335;42.646;23.380;2023-02-15T14:06:22;31.03;;;19.23;;
8279;SDS011;8335;42.646;23.380;2023-02-15T14:09:09;32.93;;;18.87;;
8279;SDS011;8335;42.646;23.380;2023-02-15T14:11:49;30.90;;;19.57;;
8279;SDS011;8335;42.646;23.380;2023-02-15T14:14:40;30.40;;;18.60;;
8279;SDS011;8335;42.646;23.380;2023-02-15T14:17:22;31.00;;;18.80;;
8279;SDS011;8335;42.646;23.380;2023-02-15T14:20:05;31.80;;;19.27;;
8279;SDS011;8335;42.646;23.380;2023-02-15T14:22:41;32.43;;;19.63;;
8279;SDS011;8335;42.646;23.380;2023-02-15T14:25:17;33.10;;;20.33;;
8279;SDS011;8335;42.646;23.380;2023-02-15T14:27:53;34.17;;;19.43;;
8279;SDS011;8335;42.646;23.380;2023-02-15T14:30:26;37.20;;;20.37;;
8279;SDS011;8335;42.646;23.380;2023-02-15T14:32:58;34.90;;;20.10;;
8279;SDS011;8335;42.646;23.380;2023-02-15T14:35:30;33.43;;;20.77;;
8279;SDS011;8335;42.646;23.380;2023-02-15T14:37:58;31.17;;;19.63;;
8279;SDS011;8335;42.646;23.380;2023-02-15T14:40:36;35.03;;;19.97;;
8279;SDS011;8335;42.646;23.380;2023-02-15T14:43:29;38.10;;;20.17;;
8279;SDS011;8335;42.646;23.380;2023-02-15T14:46:03;36.50;;;20.40;;
8279;SDS011;8335;42.646;23.380;2023-02-15T14:48:38;39.53;;;20.53;;
8279;SDS011;8335;42.646;23.380;2023-02-15T14:51:09;39.60;;;20.30;;
8279;SDS011;8335;42.646;23.380;2023-02-15T14:53:37;35.40;;;20.07;;
8279;SDS011;8335;42.646;23.380;2023-02-15T14:56:26;33.13;;;19.93;;
8279;SDS011;8335;42.646;23.380;2023-02-15T14:59:00;33.47;;;20.23;;
8279;SDS011;8335;42.646;23.380;2023-02-15T15:01:53;34.60;;;20.07;;
8279;SDS011;8335;42.646;23.380;2023-02-15T15:04:25;33.97;;;19.70;;
8279;SDS011;8335;42.646;23.380;2023-02-15T15:07:00;33.13;;;19.40;;
8279;SDS011;8335;42.646;23.380;2023-02-15T15:09:34;35.67;;;20.23;;
8279;SDS011;8335;42.646;23.380;2023-02-15T15:12:14;35.07;;;21.13;;
8279;SDS011;8335;42.646;23.380;2023-02-15T15:14:56;34.83;;;20.90;;
8279;SDS011;8335;42.646;23.380;2023-02-15T15:20:37;37.33;;;20.07;;